Item Display Status Humidity-temperature Sensor

Elevation Above Sea Level: 3 m

 

Deployed Sensor

  • Serial Number: 20370362
  • NDBC Property Number: 43932
  • Start Date: 10/5/2022 (01:08:09 Z)
  • End Date: Currently Active
Relative Humidity [%]     6 entries per hour
Showing data from 7/23/2024 (13:00:00 Z) to 7/22/2024 (00:00:01 Z)
Previous Next [ Day | 3-Days | 7-Days ]
First Last
Prev [ Day | 3-Days | 7-Days ] Next
First Last

Start Time:     :
End Time:     :     
Time (in GMT) :00 :50 :40 :30 :20 :10
Previous Next [ Day | 3-Days | 7-Days ]
First Last
Prev [ Day | 3-Days | 7-Days ] Next
First Last


123 => good data
MM => data is determined as missing
-- => data not received/configured
Back to Top Back to Top
7/23/2024 13:00 to 12:10 78.09 77.72 77.70 77.59 77.57 77.55
7/23/2024 12:00 to 11:10 77.39 77.29 76.92 76.65 76.88 76.38
7/23/2024 11:00 to 10:10 76.18 75.85 75.77 75.75 75.97 76.04
7/23/2024 10:00 to 9:10 76.14 76.38 76.38 76.26 76.92 76.80
7/23/2024 09:00 to 8:10 75.97 75.54 75.61 74.95 73.64 73.29
7/23/2024 08:00 to 7:10 74.79 75.26 75.85 76.73 76.71 76.59
7/23/2024 07:00 to 6:10 76.65 76.41 76.40 76.55 76.73 75.89
7/23/2024 06:00 to 5:10 75.77 75.56 75.65 76.26 75.87 75.89
7/23/2024 05:00 to 4:10 75.87 76.32 75.95 76.00 75.69 75.52
7/23/2024 04:00 to 3:10 75.54 75.81 74.62 74.36 74.60 73.99
7/23/2024 03:00 to 2:10 74.93 74.11 74.27 74.70 74.52 74.54
7/23/2024 02:00 to 1:10 74.60 74.48 74.38 74.81 74.66 75.03
7/23/2024 01:00 to 0:10 75.05 74.79 74.97 75.13 75.05 75.44
7/23/2024 00:00 to 23:10 75.11 74.81 75.17 75.71 75.61 75.63
7/22/2024 23:00 to 22:10 75.59 75.75 75.85 75.46 76.18 76.90
7/22/2024 22:00 to 21:10 76.98 76.59 76.47 76.26 76.45 76.92
7/22/2024 21:00 to 20:10 77.35 77.51 77.84 78.19 77.70 78.07
7/22/2024 20:00 to 19:10 77.94 78.05 78.00 77.39 77.41 77.90
7/22/2024 19:00 to 18:10 77.90 77.88 77.90 77.68 77.57 77.49
7/22/2024 18:00 to 17:10 77.29 77.20 77.16 77.78 78.05 78.70
7/22/2024 17:00 to 16:10 78.64 78.35 78.62 78.25 78.19 77.80
7/22/2024 16:00 to 15:10 78.50 78.80 79.01 79.25 78.87 78.66
7/22/2024 15:00 to 14:10 78.68 79.67 79.73 79.67 79.46 78.44
7/22/2024 14:00 to 13:10 77.51 78.87 80.40 81.45 81.55 81.41
7/22/2024 13:00 to 12:10 81.28 80.87 80.69 80.48 79.77 79.50
7/22/2024 12:00 to 11:10 79.56 80.07 80.53 80.46 80.03 80.10
7/22/2024 11:00 to 10:10 79.97 79.62 79.93 80.20 80.51 80.32
7/22/2024 10:00 to 9:10 80.16 79.93 79.99 79.89 79.79 79.32
7/22/2024 09:00 to 8:10 79.73 79.32 79.50 78.95 79.50 79.79
7/22/2024 08:00 to 7:10 79.93 79.81 80.26 80.36 79.85 79.56
7/22/2024 07:00 to 6:10 79.58 79.44 79.15 79.34 79.36 78.74
7/22/2024 06:00 to 5:10 78.33 78.82 79.09 78.84 79.26 78.74
7/22/2024 05:00 to 4:10 79.30 78.78 78.35 78.44 78.23 78.00
7/22/2024 04:00 to 3:10 77.49 78.07 78.56 78.58 78.85 77.68
7/22/2024 03:00 to 2:10 77.45 77.45 77.20 77.21 77.57 78.39
7/22/2024 02:00 to 1:10 78.99 79.83 79.66 80.12 80.57 80.01
7/22/2024 01:00 to 0:10 80.96 81.31 81.39 81.30 81.33 81.37

 

 

 

Air Temperature [°C]     6 entries per hour
Showing data from 7/23/2024 (13:00:00 Z) to 7/22/2024 (00:00:01 Z)
Previous Next [ Day | 3-Days | 7-Days ]
First Last
Prev [ Day | 3-Days | 7-Days ] Next
First Last

Start Time:     :
End Time:     :     
Time (in GMT) :00 :50 :40 :30 :20 :10
Previous Next [ Day | 3-Days | 7-Days ]
First Last
Prev [ Day | 3-Days | 7-Days ] Next
First Last


123 => good data
MM => data is determined as missing
-- => data not received/configured
Back to Top Back to Top
7/23/2024 13:00 to 12:10 27.62 27.54 27.64 27.58 27.86 27.62
7/23/2024 12:00 to 11:10 27.60 27.59 27.62 27.57 27.77 27.69
7/23/2024 11:00 to 10:10 27.70 27.69 27.79 27.73 27.87 27.84
7/23/2024 10:00 to 9:10 27.88 27.83 27.88 27.68 27.92 27.97
7/23/2024 09:00 to 8:10 27.86 27.91 28.06 28.10 28.05 28.01
7/23/2024 08:00 to 7:10 27.89 27.94 27.82 28.06 27.99 27.82
7/23/2024 07:00 to 6:10 28.01 28.20 28.02 28.00 28.19 28.09
7/23/2024 06:00 to 5:10 27.96 28.01 27.85 28.06 28.14 28.02
7/23/2024 05:00 to 4:10 27.95 28.02 28.01 28.03 28.02 28.02
7/23/2024 04:00 to 3:10 28.05 28.24 28.49 28.52 28.57 28.44
7/23/2024 03:00 to 2:10 28.34 28.46 28.47 28.67 28.64 28.68
7/23/2024 02:00 to 1:10 28.60 28.79 28.53 28.48 28.55 28.51
7/23/2024 01:00 to 0:10 28.53 28.50 28.39 28.39 28.43 28.35
7/23/2024 00:00 to 23:10 28.60 28.36 28.49 28.44 28.16 28.28
7/22/2024 23:00 to 22:10 28.21 28.21 28.26 28.33 27.85 28.31
7/22/2024 22:00 to 21:10 28.26 28.20 28.34 28.27 28.22 28.22
7/22/2024 21:00 to 20:10 28.15 28.03 28.15 28.20 28.01 28.19
7/22/2024 20:00 to 19:10 28.23 28.06 28.20 27.98 28.05 27.76
7/22/2024 19:00 to 18:10 27.94 27.87 27.88 27.78 27.78 27.87
7/22/2024 18:00 to 17:10 27.92 27.77 27.72 27.84 27.56 27.90
7/22/2024 17:00 to 16:10 27.85 27.80 27.82 27.73 27.57 27.87
7/22/2024 16:00 to 15:10 27.56 27.76 27.74 27.71 27.69 27.56
7/22/2024 15:00 to 14:10 27.66 27.59 27.67 27.65 27.64 28.08
7/22/2024 14:00 to 13:10 27.62 27.53 27.45 27.69 27.43 27.69
7/22/2024 13:00 to 12:10 27.90 27.87 27.74 27.96 27.85 27.81
7/22/2024 12:00 to 11:10 27.71 27.67 27.80 27.89 27.94 27.96
7/22/2024 11:00 to 10:10 27.97 27.86 27.87 27.82 27.81 27.85
7/22/2024 10:00 to 9:10 28.11 27.83 28.09 27.98 27.97 28.15
7/22/2024 09:00 to 8:10 28.17 27.97 28.17 28.04 28.08 28.08
7/22/2024 08:00 to 7:10 28.26 28.01 27.99 28.27 28.20 28.11
7/22/2024 07:00 to 6:10 28.16 28.10 28.17 28.19 28.08 28.15
7/22/2024 06:00 to 5:10 28.11 28.08 28.13 28.05 28.32 27.91
7/22/2024 05:00 to 4:10 28.12 28.13 28.22 28.13 27.97 28.31
7/22/2024 04:00 to 3:10 28.50 28.52 28.20 28.47 28.27 28.67
7/22/2024 03:00 to 2:10 28.95 28.75 28.67 28.69 28.46 28.67
7/22/2024 02:00 to 1:10 28.43 28.32 28.22 28.27 28.25 28.08
7/22/2024 01:00 to 0:10 28.25 28.07 28.11 28.07 28.24 28.12